Time;durP1;ratioP1;P1;durP2;ratioP2;P2;SDS_P1;SDS_P2;PMS_P1;PMS_P2;Temp;Humidity;BMP_temperature;BMP_pressure;BME280_temperature;BME280_humidity;BME280_pressure;Samples;Min_cycle;Max_cycle;Signal;HPM_P1;HPM_P2
2023/02/14 00:01:10;;;;;;;0.80;0.80;;;2.40;75.10;;;2.03;63.88;96732.47;4993277;28;20195;-18
2023/02/14 00:03:38;;;;;;;0.77;0.77;;;2.40;75.20;;;1.97;63.88;96730.25;4993332;28;20571;-18
2023/02/14 00:06:13;;;;;;;0.70;0.70;;;2.30;75.30;;;1.97;63.72;96738.84;4992856;28;20238;-17
2023/02/14 00:08:43;;;;;;;0.80;0.80;;;2.30;75.30;;;1.90;63.70;96727.19;4992111;28;20182;-18
2023/02/14 00:11:12;;;;;;;0.80;0.80;;;2.30;75.40;;;1.88;65.04;96729.03;4993271;28;20243;-18
2023/02/14 00:15:20;;;;;;;0.80;0.80;;;2.30;75.70;;;1.86;65.00;96723.16;4992929;28;20694;-18
2023/02/14 00:16:27;;;;;;;0.80;0.80;;;2.30;76.00;;;1.83;65.77;96713.81;4993192;28;20289;-17
2023/02/14 00:19:03;;;;;;;0.80;0.80;;;2.30;76.10;;;1.88;65.14;96711.78;4992932;28;20625;-17
2023/02/14 00:21:34;;;;;;;0.70;0.70;;;2.20;76.10;;;1.88;65.33;96723.84;4993074;28;20189;-18
2023/02/14 00:24:11;;;;;;;0.80;0.80;;;2.20;76.30;;;1.88;66.22;96726.44;4993023;28;20574;-17
2023/02/14 00:26:39;;;;;;;0.70;0.70;;;2.30;76.50;;;1.96;65.52;96723.41;4991956;28;20286;-18
2023/02/14 00:29:11;;;;;;;0.80;0.80;;;2.30;76.50;;;1.98;65.22;96726.72;4991801;28;20194;-18
2023/02/14 00:31:39;;;;;;;0.70;0.70;;;2.30;76.40;;;1.99;65.27;96731.81;4991807;28;20191;-18
2023/02/14 00:34:07;;;;;;;0.70;0.70;;;2.30;76.40;;;1.97;65.50;96722.50;4991805;28;20194;-18
2023/02/14 00:36:35;;;;;;;0.70;0.70;;;2.30;76.40;;;1.98;65.25;96721.53;4992320;28;20205;-17
2023/02/14 00:39:08;;;;;;;0.70;0.70;;;2.30;76.40;;;2.00;65.19;96730.91;4996033;28;20197;-18
2023/02/14 00:41:37;;;;;;;0.80;0.80;;;2.30;76.40;;;1.96;65.37;96718.25;4996032;28;20580;-18
2023/02/14 00:44:05;;;;;;;0.73;0.73;;;2.30;77.30;;;1.93;66.00;96721.84;4996023;28;20198;-18
2023/02/14 00:46:33;;;;;;;0.90;0.90;;;2.30;76.70;;;1.98;66.04;96724.13;4994983;28;20218;-18
2023/02/14 00:49:00;;;;;;;0.90;0.90;;;2.30;76.90;;;1.99;66.88;96721.47;4995847;28;20681;-18
2023/02/14 00:51:28;;;;;;;0.80;0.80;;;2.30;77.40;;;2.01;67.55;96713.59;4995934;28;20232;-17
2023/02/14 00:53:55;;;;;;;0.90;0.90;;;2.40;77.80;;;2.09;68.13;96719.16;4995892;28;20190;-18
2023/02/14 00:56:22;;;;;;;0.70;0.70;;;2.40;78.10;;;2.12;68.01;96708.59;4995941;28;20205;-17
2023/02/14 00:58:49;;;;;;;0.70;0.70;;;2.50;78.40;;;2.21;68.54;96722.72;4995722;28;20202;-18
2023/02/14 01:01:18;;;;;;;0.80;0.80;;;2.50;78.80;;;2.29;69.93;96717.09;4994850;28;20283;-18
2023/02/14 01:03:45;;;;;;;0.80;0.80;;;2.60;79.30;;;2.40;70.13;96714.66;4995962;28;20266;-18
2023/02/14 01:06:12;;;;;;;0.90;0.90;;;2.70;79.90;;;2.51;70.02;96713.97;4995677;28;20245;-18
2023/02/14 01:08:39;;;;;;;0.70;0.70;;;2.80;80.20;;;2.64;70.14;96714.84;4995755;28;20210;-18
2023/02/14 01:11:17;;;;;;;0.70;0.70;;;2.90;80.20;;;2.79;69.95;96710.44;4995617;28;20270;-18
2023/02/14 01:13:46;;;;;;;0.70;0.70;;;3.00;80.50;;;2.90;70.26;96707.16;4994705;28;20208;-18
2023/02/14 01:16:17;;;;;;;0.80;0.80;;;3.20;80.70;;;3.02;70.22;96700.34;4994589;28;20621;-18
2023/02/14 01:18:45;;;;;;;0.70;0.70;;;3.30;80.80;;;3.15;70.08;96690.00;4994461;28;20241;-18
2023/02/14 01:21:31;;;;;;;0.70;0.70;;;3.40;81.00;;;3.30;69.90;96685.56;4995503;28;20206;-18
2023/02/14 01:24:03;;;;;;;0.70;0.70;;;3.60;81.10;;;3.45;69.28;96692.31;4994516;28;20202;-18
2023/02/14 01:26:30;;;;;;;0.70;0.70;;;3.70;81.10;;;3.61;69.15;96686.91;4995595;28;20210;-18
2023/02/14 01:29:01;;;;;;;0.80;0.80;;;3.80;81.00;;;3.73;69.13;96684.44;4994282;28;20577;-18
2023/02/14 01:31:32;;;;;;;0.70;0.70;;;3.90;81.00;;;3.86;68.34;96687.84;4995342;28;20630;-17
2023/02/14 01:33:59;;;;;;;0.75;0.75;;;4.10;80.80;;;3.97;67.90;96682.72;4995441;28;20498;-18
2023/02/14 01:36:38;;;;;;;0.70;0.70;;;4.20;80.50;;;4.10;67.21;96684.47;4995489;28;20203;-18
2023/02/14 01:39:11;;;;;;;0.70;0.70;;;4.40;80.40;;;4.18;67.00;96686.53;4994087;28;20205;-17
2023/02/14 01:41:41;;;;;;;0.73;0.73;;;4.50;80.00;;;4.26;66.62;96677.25;4994312;28;20210;-18
2023/02/14 01:44:14;;;;;;;0.70;0.70;;;4.60;79.80;;;4.36;66.54;96669.66;4995265;28;20605;-18
2023/02/14 01:46:43;;;;;;;0.70;0.70;;;4.70;79.60;;;4.42;66.38;96668.34;4995054;28;20225;-18
2023/02/14 01:49:21;;;;;;;0.80;0.80;;;4.80;79.30;;;4.52;66.10;96668.53;4994906;28;20206;-18
2023/02/14 01:52:07;;;;;;;0.80;0.80;;;4.80;79.00;;;4.63;65.31;96673.78;4994772;28;20279;-18
2023/02/14 01:54:41;;;;;;;0.73;0.73;;;4.90;78.80;;;4.66;65.22;96670.97;4994443;28;20589;-18
2023/02/14 01:57:12;;;;;;;0.70;0.70;;;5.10;78.60;;;4.75;64.88;96674.69;4977845;28;20210;-18
2023/02/14 01:59:50;;;;;;;0.80;0.80;;;5.20;78.40;;;4.77;64.83;96665.81;4978218;28;20558;-18
2023/02/14 02:02:22;;;;;;;0.60;0.60;;;5.20;78.20;;;4.85;64.60;96664.44;4994009;28;20621;-18
2023/02/14 02:04:54;;;;;;;0.60;0.60;;;5.20;78.00;;;4.87;64.51;96652.13;4994962;28;20187;-18
2023/02/14 02:07:26;;;;;;;0.70;0.70;;;5.30;77.90;;;4.93;64.37;96655.13;4993619;28;20334;-18
2023/02/14 02:10:00;;;;;;;0.73;0.73;;;5.40;77.70;;;4.95;63.99;96652.41;4993848;28;20289;-17
2023/02/14 02:12:27;;;;;;;0.70;0.70;;;5.40;77.50;;;4.95;63.99;96644.59;4994774;28;20187;-17
2023/02/14 02:14:58;;;;;;;0.70;0.70;;;5.50;77.50;;;5.02;63.86;96640.59;4994613;28;20285;-18
2023/02/14 02:18:16;;;;;;;0.80;0.80;;;5.50;77.30;;;5.06;63.57;96633.41;4993561;28;20206;-18
2023/02/14 02:21:34;;;;;;;0.60;0.60;;;5.50;77.20;;;5.06;63.38;96638.59;5035576;28;20191;-18
2023/02/14 02:24:16;;;;;;;0.70;0.70;;;5.60;77.00;;;5.06;63.28;96644.63;5018803;28;20205;-17
2023/02/14 02:27:38;;;;;;;0.60;0.60;;;5.60;76.80;;;5.07;63.10;96635.88;4994517;28;20206;-18
2023/02/14 02:30:37;;;;;;;0.80;0.80;;;5.70;76.80;;;5.11;63.16;96631.28;5035250;28;20209;-18
2023/02/14 02:33:31;;;;;;;0.60;0.60;;;5.70;76.60;;;5.11;62.92;96636.50;4993724;28;20277;-18
2023/02/14 02:36:39;;;;;;;0.73;0.73;;;5.70;76.50;;;5.11;62.77;96645.13;4993458;28;20202;-18
2023/02/14 02:39:31;;;;;;;0.70;0.70;;;5.70;76.50;;;5.06;63.18;96636.81;4993545;28;20518;-17
2023/02/14 02:42:35;;;;;;;0.60;0.60;;;5.70;76.30;;;5.15;63.09;96635.34;4993458;28;20233;-18
2023/02/14 02:45:11;;;;;;;0.60;0.60;;;5.70;76.30;;;5.16;62.59;96636.97;4994226;28;20190;-18
2023/02/14 02:47:53;;;;;;;0.60;0.60;;;5.70;76.30;;;5.20;62.95;96637.56;4993996;28;20217;-18
2023/02/14 02:53:20;;;;;;;0.60;0.60;;;5.80;76.20;;;5.22;62.74;96636.50;4994360;28;20610;-18
2023/02/14 02:59:03;;;;;;;0.60;0.60;;;5.80;76.00;;;5.24;62.45;96632.03;4993184;28;20182;-17
2023/02/14 03:01:36;;;;;;;0.60;0.60;;;5.80;75.90;;;5.28;62.47;96630.88;4976795;28;20203;-17
2023/02/14 03:06:55;;;;;;;0.80;0.80;;;5.80;75.80;;;5.35;61.97;96638.19;4979134;28;20233;-18
2023/02/14 03:09:26;;;;;;;0.60;0.60;;;5.80;75.80;;;5.36;61.71;96642.44;4992742;28;20233;-18
2023/02/14 03:12:15;;;;;;;0.60;0.60;;;5.80;75.70;;;5.32;62.07;96646.22;4994131;28;20514;-18
2023/02/14 03:14:55;;;;;;;0.80;0.80;;;5.90;75.70;;;5.28;62.02;96643.88;4976861;28;20209;-18
2023/02/14 03:17:54;;;;;;;0.60;0.60;;;5.80;75.60;;;5.25;61.93;96654.50;4992828;28;20283;-17
2023/02/14 03:20:48;;;;;;;0.70;0.70;;;5.90;75.70;;;5.27;61.98;96651.78;4993671;28;20277;-18
2023/02/14 03:23:41;;;;;;;0.70;0.70;;;5.80;75.60;;;5.22;62.26;96644.31;4992725;28;20260;-18
2023/02/14 03:26:17;;;;;;;0.80;0.80;;;5.80;75.60;;;5.25;61.93;96645.88;4976613;28;20297;-18
2023/02/14 03:29:11;;;;;;;0.80;0.80;;;5.80;75.70;;;5.23;62.29;96645.16;4992881;28;20280;-18
2023/02/14 03:32:25;;;;;;;0.70;0.70;;;5.70;75.50;;;5.20;62.16;96643.63;4976764;28;20301;-17
2023/02/14 03:35:08;;;;;;;0.80;0.80;;;5.70;75.50;;;5.11;62.22;96641.69;4976579;28;20247;-17
2023/02/14 03:37:52;;;;;;;0.80;0.80;;;5.70;75.50;;;5.05;62.36;96642.97;4992557;28;20210;-18
2023/02/14 03:40:41;;;;;;;0.70;0.70;;;5.60;75.50;;;5.03;62.68;96649.22;4992689;28;20182;-18
2023/02/14 03:43:27;;;;;;;0.80;0.80;;;5.60;75.60;;;4.97;62.85;96655.72;4976801;28;20267;-18
2023/02/14 03:46:01;;;;;;;0.70;0.70;;;5.50;75.70;;;4.93;63.11;96655.13;4976439;28;20195;-18
2023/02/14 03:48:30;;;;;;;0.70;0.70;;;5.50;75.90;;;4.90;63.21;96654.53;4992555;28;20186;-18
2023/02/14 03:50:58;;;;;;;0.80;0.80;;;5.40;76.00;;;4.92;63.11;96653.47;4992441;28;20204;-18
2023/02/14 03:53:33;;;;;;;0.80;0.80;;;5.40;76.10;;;4.89;63.35;96650.25;4992517;28;20201;-18
2023/02/14 03:56:31;;;;;;;0.80;0.80;;;5.40;76.10;;;4.94;63.36;96653.34;4993317;28;20235;-18
2023/02/14 03:59:06;;;;;;;0.80;0.80;;;5.40;76.10;;;4.93;63.14;96655.13;4993464;28;20202;-18
2023/02/14 04:01:42;;;;;;;0.70;0.70;;;5.40;76.10;;;4.94;63.13;96645.53;4993445;28;20190;-18
2023/02/14 04:04:10;;;;;;;0.60;0.60;;;5.40;76.20;;;5.00;63.42;96650.28;4993184;28;20174;-18
2023/02/14 04:06:37;;;;;;;0.70;0.70;;;5.50;76.20;;;4.99;63.39;96646.03;4992809;28;20238;-17
2023/02/14 04:09:05;;;;;;;0.80;0.80;;;5.50;76.20;;;5.01;63.00;96646.75;4991994;28;20207;-18
2023/02/14 04:11:34;;;;;;;0.50;0.50;;;5.50;76.20;;;5.03;62.81;96650.06;4992197;28;20545;-18
2023/02/14 04:14:01;;;;;;;0.70;0.70;;;5.50;76.20;;;5.07;62.99;96650.69;4992296;28;20198;-17
2023/02/14 04:16:28;;;;;;;0.70;0.70;;;5.50;76.20;;;5.09;62.93;96639.22;4992903;28;20198;-18
2023/02/14 04:21:41;;;;;;;0.70;0.70;;;5.60;76.20;;;5.12;62.89;96635.56;4992894;28;20301;-18
2023/02/14 04:24:08;;;;;;;0.70;0.70;;;5.60;76.20;;;5.08;63.33;96634.94;4992769;28;20206;-17
2023/02/14 04:26:35;;;;;;;0.70;0.70;;;5.60;76.10;;;5.09;63.03;96630.56;4991764;28;20241;-17
2023/02/14 04:29:02;;;;;;;0.70;0.70;;;5.60;76.10;;;5.10;63.12;96634.81;4992765;28;20198;-18
2023/02/14 04:31:29;;;;;;;0.80;0.80;;;5.60;77.00;;;5.05;62.77;96629.16;4991756;28;20660;-18
2023/02/14 04:33:56;;;;;;;0.60;0.60;;;5.50;76.10;;;5.04;62.86;96628.34;4991811;28;20281;-18
2023/02/14 04:36:24;;;;;;;0.80;0.80;;;5.50;76.20;;;5.01;63.17;96620.75;4992755;28;20190;-18
2023/02/14 04:38:50;;;;;;;0.60;0.60;;;5.50;76.20;;;4.94;63.22;96625.59;4992476;28;20194;-18
2023/02/14 04:41:17;;;;;;;0.80;0.80;;;5.50;76.20;;;4.90;63.52;96621.53;4992817;28;20531;-18
2023/02/14 04:43:44;;;;;;;0.60;0.60;;;5.50;76.30;;;4.88;63.51;96620.00;4992839;28;20218;-18
2023/02/14 04:46:12;;;;;;;0.70;0.70;;;5.40;76.40;;;4.88;63.48;96625.19;4992528;28;20201;-18
2023/02/14 04:48:39;;;;;;;0.50;0.50;;;5.40;76.30;;;4.83;63.54;96614.31;4991390;28;20221;-18
2023/02/14 04:51:06;;;;;;;0.70;0.70;;;5.40;76.40;;;4.85;63.91;96620.25;4992457;28;20280;-18
2023/02/14 04:53:38;;;;;;;0.90;0.90;;;5.40;76.40;;;4.77;63.91;96608.63;4992433;28;20198;-18
2023/02/14 04:56:07;;;;;;;0.60;0.60;;;5.40;76.50;;;4.83;63.97;96622.94;4992689;28;20203;-18
2023/02/14 04:58:34;;;;;;;0.50;0.50;;;5.40;76.50;;;4.80;63.88;96608.41;4992215;28;20190;-18
2023/02/14 05:01:01;;;;;;;0.70;0.70;;;5.40;76.60;;;4.77;64.27;96613.00;4992377;28;20259;-18
2023/02/14 05:03:29;;;;;;;0.75;0.75;;;5.30;76.60;;;4.76;64.19;96619.13;4992575;28;20229;-18
2023/02/14 05:05:56;;;;;;;0.50;0.50;;;5.40;76.80;;;4.74;64.25;96611.44;4991234;28;20238;-18
2023/02/14 05:08:23;;;;;;;0.80;0.80;;;5.30;76.80;;;4.77;64.24;96610.41;4992378;28;20225;-17
2023/02/14 05:10:50;;;;;;;0.70;0.70;;;5.30;76.70;;;4.70;64.98;96601.38;4992238;28;20190;-18
2023/02/14 05:13:17;;;;;;;0.80;0.80;;;5.30;77.00;;;4.72;64.64;96608.13;4992433;28;20617;-18
2023/02/14 05:15:45;;;;;;;0.60;0.60;;;5.30;77.10;;;4.71;64.92;96614.28;4992235;28;20579;-18
2023/02/14 05:18:12;;;;;;;0.60;0.60;;;5.30;77.00;;;4.73;64.75;96609.78;4991343;28;20604;-18
2023/02/14 05:20:39;;;;;;;0.80;0.80;;;5.30;77.00;;;4.77;64.87;96611.25;4991107;28;20197;-18
2023/02/14 05:23:12;;;;;;;0.70;0.70;;;5.30;77.00;;;4.76;65.00;96612.19;4993326;28;20289;-18
2023/02/14 05:25:40;;;;;;;0.50;0.50;;;5.40;77.10;;;4.77;64.89;96611.25;4995855;28;20255;-18
2023/02/14 05:28:08;;;;;;;0.70;0.70;;;5.30;77.10;;;4.80;64.54;96608.41;4994562;28;20216;-18
2023/02/14 05:30:36;;;;;;;0.70;0.70;;;5.30;77.10;;;4.82;64.69;96608.28;4995249;28;20201;-18
2023/02/14 05:33:04;;;;;;;0.70;0.70;;;5.40;77.10;;;4.81;65.08;96598.84;4995984;28;20629;-18
2023/02/14 05:35:31;;;;;;;0.70;0.70;;;5.40;77.10;;;4.90;64.50;96608.53;4995301;28;20251;-18
2023/02/14 05:37:58;;;;;;;0.70;0.70;;;5.40;77.10;;;4.88;64.45;96602.66;4994456;28;20204;-18
2023/02/14 05:40:26;;;;;;;0.70;0.70;;;5.40;77.10;;;4.94;64.48;96612.59;4995014;28;20209;-18
2023/02/14 05:42:54;;;;;;;0.70;0.70;;;5.40;77.00;;;4.92;64.50;96613.63;4995352;28;20209;-18
2023/02/14 05:45:22;;;;;;;0.70;0.70;;;5.50;77.10;;;4.91;64.90;96604.19;4995234;28;20190;-18
2023/02/14 05:47:50;;;;;;;0.70;0.70;;;5.40;77.10;;;4.90;65.24;96610.31;4995015;28;20660;-18
2023/02/14 05:50:18;;;;;;;0.60;0.60;;;5.50;77.30;;;4.88;65.08;96612.19;4977954;28;20230;-18
2023/02/14 05:52:46;;;;;;;0.68;0.68;;;5.40;78.00;;;4.86;65.58;96614.06;4995080;28;20198;-18
2023/02/14 05:55:13;;;;;;;0.70;0.70;;;5.40;77.30;;;4.87;65.31;96613.13;4995270;28;20538;-18
2023/02/14 05:57:40;;;;;;;0.80;0.80;;;5.40;77.40;;;4.79;65.63;96604.13;4994114;28;20203;-17
2023/02/14 06:00:09;;;;;;;0.70;0.70;;;5.40;77.50;;;4.76;66.04;96612.19;4993921;28;20586;-18
2023/02/14 06:02:39;;;;;;;0.70;0.70;;;5.40;77.70;;;4.79;65.56;96611.94;4994947;28;20273;-17
2023/02/14 06:05:07;;;;;;;0.70;0.70;;;5.40;77.70;;;4.75;66.36;96605.31;4994672;28;20206;-18
2023/02/14 06:07:34;;;;;;;0.70;0.70;;;5.40;77.80;;;4.73;66.16;96617.59;4994923;28;20228;-18
2023/02/14 06:10:01;;;;;;;0.80;0.80;;;5.30;77.90;;;4.77;66.39;96626.84;4994074;28;20229;-18
2023/02/14 06:12:28;;;;;;;0.70;0.70;;;5.30;77.90;;;4.79;66.02;96616.31;4994754;28;20195;-18
2023/02/14 06:14:55;;;;;;;0.85;0.85;;;5.30;77.90;;;4.80;65.98;96618.78;4977722;28;20198;-18
2023/02/14 06:17:22;;;;;;;0.70;0.70;;;5.30;77.90;;;4.77;66.40;96616.44;4994955;28;20198;-18
2023/02/14 06:19:49;;;;;;;0.70;0.70;;;5.30;78.00;;;4.79;66.32;96624.13;4993662;28;20198;-17
2023/02/14 06:22:16;;;;;;;0.70;0.70;;;5.30;78.00;;;4.78;66.10;96620.66;4994782;28;20247;-18
2023/02/14 06:24:43;;;;;;;0.60;0.60;;;5.30;78.10;;;4.83;66.49;96619.53;4994564;28;20552;-17
2023/02/14 06:27:10;;;;;;;0.70;0.70;;;5.30;78.10;;;4.81;66.26;96620.47;4993827;28;20242;-17
2023/02/14 06:29:37;;;;;;;0.77;0.77;;;5.30;78.10;;;4.83;66.12;96619.53;4993428;28;20206;-18
2023/02/14 06:32:05;;;;;;;0.80;0.80;;;5.30;78.10;;;4.82;66.52;96631.66;4994452;28;20668;-17
2023/02/14 06:34:33;;;;;;;0.70;0.70;;;5.40;78.30;;;4.87;66.22;96639.13;4993497;28;20214;-17
2023/02/14 06:37:00;;;;;;;0.70;0.70;;;5.40;78.20;;;4.87;66.49;96633.94;4961460;28;20263;-18
2023/02/14 06:39:27;;;;;;;0.70;0.70;;;5.40;78.30;;;4.93;66.17;96646.47;4993358;28;20198;-18
2023/02/14 06:41:54;;;;;;;0.80;0.80;;;5.40;78.20;;;4.95;66.18;96642.81;4994311;28;20191;-18
2023/02/14 06:44:21;;;;;;;0.60;0.60;;;5.40;78.30;;;4.93;66.29;96636.09;4993418;28;20197;-18
2023/02/14 06:46:48;;;;;;;0.90;0.90;;;5.40;78.40;;;4.97;66.16;96629.72;4993462;28;20572;-17
2023/02/14 06:49:15;;;;;;;0.70;0.70;;;5.40;78.30;;;4.95;66.46;96626.41;4994310;28;20285;-18
2023/02/14 06:51:42;;;;;;;0.60;0.60;;;5.50;78.40;;;4.89;66.86;96617.28;4994158;28;20247;-18
2023/02/14 06:54:09;;;;;;;0.70;0.70;;;5.40;78.50;;;4.87;66.84;96624.38;4994080;28;20202;-18
2023/02/14 06:56:36;;;;;;;0.70;0.70;;;5.40;78.60;;;4.90;66.41;96629.34;4994036;28;20213;-17
2023/02/14 06:59:03;;;;;;;0.70;0.70;;;5.40;78.60;;;4.94;66.91;96632.53;4993865;28;20297;-18
2023/02/14 07:01:30;;;;;;;0.80;0.80;;;5.40;78.60;;;4.92;66.74;96634.41;4993057;28;20217;-18
2023/02/14 07:03:57;;;;;;;0.80;0.80;;;5.50;78.70;;;4.95;66.67;96635.03;4993020;28;20201;-17
2023/02/14 07:06:24;;;;;;;0.70;0.70;;;5.40;78.70;;;4.97;66.70;96637.53;4993673;28;20234;-18
2023/02/14 07:08:51;;;;;;;0.63;0.63;;;5.40;78.60;;;4.97;66.71;96627.94;4993823;28;20236;-17
2023/02/14 07:11:18;;;;;;;0.80;0.80;;;5.50;78.80;;;5.01;66.89;96628.53;4992765;28;20277;-18
2023/02/14 07:13:45;;;;;;;0.60;0.60;;;5.50;78.70;;;5.05;66.52;96635.16;4993808;28;20190;-18
2023/02/14 07:16:15;;;;;;;0.80;0.80;;;5.50;78.60;;;5.09;66.72;96635.75;4993815;28;20277;-18
2023/02/14 07:18:42;;;;;;;0.60;0.60;;;5.60;78.70;;;5.06;66.97;96631.63;4976955;28;20194;-18
2023/02/14 07:21:09;;;;;;;0.70;0.70;;;5.60;78.80;;;5.10;67.07;96638.28;4993571;28;20194;-18
2023/02/14 07:23:36;;;;;;;0.60;0.60;;;5.60;78.90;;;5.15;66.74;96637.94;4992885;28;20202;-18
2023/02/14 07:26:03;;;;;;;0.70;0.70;;;5.60;78.90;;;5.13;66.80;96627.63;4993663;28;20206;-19
2023/02/14 07:28:30;;;;;;;0.80;0.80;;;5.60;78.90;;;5.23;66.80;96629.53;4992679;28;20218;-18
2023/02/14 07:31:00;;;;;;;0.70;0.70;;;5.70;79.00;;;5.25;66.61;96636.28;4993554;28;20190;-18
2023/02/14 07:33:28;;;;;;;0.60;0.60;;;5.70;78.90;;;5.28;66.64;96632.63;4993548;28;20613;-18
2023/02/14 07:35:55;;;;;;;0.60;0.60;;;5.70;79.00;;;5.31;66.81;96637.59;4993497;28;20535;-18
2023/02/14 07:38:23;;;;;;;0.70;0.70;;;5.70;79.00;;;5.32;66.51;96633.22;4993711;28;20206;-18
2023/02/14 07:40:53;;;;;;;0.80;0.80;;;5.80;78.90;;;5.35;66.43;96635.59;4993334;28;20209;-18
2023/02/14 07:43:20;;;;;;;0.70;0.70;;;5.80;78.90;;;5.36;66.40;96637.22;4993380;28;20190;-18
2023/02/14 07:45:47;;;;;;;0.70;0.70;;;5.80;78.80;;;5.38;66.28;96632.75;4993254;28;20194;-17
2023/02/14 07:48:14;;;;;;;0.70;0.70;;;5.90;78.90;;;5.42;66.46;96632.41;4993226;28;20213;-18
2023/02/14 07:50:41;;;;;;;0.70;0.70;;;5.90;78.90;;;5.45;66.00;96629.56;4993119;28;20206;-18
2023/02/14 07:53:10;;;;;;;0.70;0.70;;;5.90;78.80;;;5.46;66.38;96627.78;4992761;28;20629;-17
2023/02/14 07:55:38;;;;;;;0.80;0.80;;;5.90;78.80;;;5.52;66.28;96621.31;4992470;28;20267;-18
2023/02/14 07:58:06;;;;;;;0.80;0.80;;;5.90;78.70;;;5.48;66.08;96618.09;4993237;28;20198;-18
2023/02/14 08:00:33;;;;;;;0.80;0.80;;;6.00;78.80;;;5.52;66.28;96621.31;4992999;28;20198;-18
2023/02/14 08:03:00;;;;;;;0.70;0.70;;;6.00;79.60;;;5.58;65.94;96621.66;4993482;28;20209;-18
2023/02/14 08:05:27;;;;;;;0.70;0.70;;;6.00;78.80;;;5.61;66.14;96623.19;4992921;28;20238;-18
2023/02/14 08:07:54;;;;;;;0.70;0.70;;;6.00;78.90;;;5.68;65.95;96621.75;4993040;28;20684;-18
2023/02/14 08:10:21;;;;;;;0.80;0.80;;;6.10;78.80;;;5.80;65.85;96626.94;4992827;28;20201;-18
2023/02/14 08:13:00;;;;;;;0.60;0.60;;;6.20;78.80;;;5.82;65.70;96625.06;4992046;28;20206;-18
2023/02/14 08:18:16;;;;;;;0.80;0.80;;;6.30;78.60;;;5.89;65.45;96627.06;4992897;28;20226;-18
2023/02/14 08:20:47;;;;;;;0.80;0.80;;;6.30;78.50;;;5.93;65.51;96622.44;4992624;28;20206;-18
2023/02/14 08:23:16;;;;;;;0.60;0.60;;;6.40;78.50;;;6.03;65.10;96619.97;4993112;28;20187;-18
2023/02/14 08:25:43;;;;;;;0.70;0.70;;;6.40;78.50;;;6.02;65.06;96626.16;4992789;28;20694;-18
2023/02/14 08:28:12;;;;;;;0.70;0.70;;;6.50;78.40;;;6.08;65.04;96620.47;4991750;28;20222;-18
2023/02/14 08:30:41;;;;;;;0.70;0.70;;;6.50;78.40;;;6.06;64.72;96630.97;4992588;28;20190;-18
2023/02/14 08:33:08;;;;;;;0.70;0.70;;;6.70;78.30;;;6.11;64.75;96625.41;4992713;28;20676;-18
2023/02/14 08:35:35;;;;;;;0.60;0.60;;;6.60;78.20;;;6.09;64.57;96625.53;4991713;28;20213;-18
2023/02/14 08:38:03;;;;;;;0.70;0.70;;;6.60;77.90;;;5.99;64.38;96626.38;4991714;28;20517;-18
2023/02/14 08:40:32;;;;;;;0.70;0.70;;;6.60;77.90;;;5.99;64.54;96632.41;4992489;28;20572;-18
2023/02/14 08:42:59;;;;;;;0.60;0.60;;;6.50;77.90;;;6.04;64.64;96632.06;4992555;28;20256;-18
2023/02/14 08:45:26;;;;;;;0.70;0.70;;;6.60;78.00;;;6.12;64.81;96634.88;4992522;28;20289;-18
2023/02/14 08:47:54;;;;;;;0.60;0.60;;;6.60;78.10;;;6.17;64.50;96639.75;4992464;28;20210;-18
2023/02/14 08:50:21;;;;;;;0.80;0.80;;;6.60;77.90;;;6.22;64.64;96648.81;4992379;28;20190;-18
2023/02/14 08:52:48;;;;;;;0.60;0.60;;;6.70;77.90;;;6.20;64.32;96644.69;4992451;28;20190;-17
2023/02/14 08:55:15;;;;;;;0.65;0.65;;;6.70;77.80;;;6.22;64.26;96642.81;4991659;28;20206;-18
2023/02/14 08:57:42;;;;;;;0.60;0.60;;;6.70;77.70;;;6.25;64.34;96653.81;4992078;28;20190;-18
2023/02/14 09:00:10;;;;;;;0.70;0.70;;;6.70;77.70;;;6.24;63.83;96646.13;4995804;28;20637;-18
2023/02/14 09:02:37;;;;;;;0.70;0.70;;;6.70;77.60;;;6.19;64.00;96646.47;4996054;28;20201;-18
2023/02/14 09:05:05;;;;;;;0.60;0.60;;;6.70;77.50;;;6.21;64.21;96652.41;4995559;28;20523;-18
2023/02/14 09:07:32;;;;;;;0.60;0.60;;;6.70;77.60;;;6.20;64.30;96647.31;4995969;28;20201;-18
2023/02/14 09:09:59;;;;;;;0.70;0.70;;;6.70;77.60;;;6.24;64.42;96644.34;4978817;28;20552;-17
2023/02/14 09:12:26;;;;;;;0.70;0.70;;;6.80;77.70;;;6.30;64.25;96639.56;4995734;28;20196;-18
2023/02/14 09:14:53;;;;;;;0.70;0.70;;;6.80;77.60;;;6.31;64.41;96644.69;4995059;28;20209;-18
2023/02/14 09:17:20;;;;;;;0.80;0.80;;;6.90;77.70;;;6.39;64.37;96644.88;4996148;28;20239;-18
2023/02/14 09:19:47;;;;;;;0.70;0.70;;;6.90;78.50;;;6.49;64.06;96651.97;4995478;28;20198;-18
2023/02/14 09:22:14;;;;;;;0.70;0.70;;;6.90;77.70;;;6.50;64.03;96648.44;4978919;28;20206;-18
2023/02/14 09:24:42;;;;;;;0.70;0.70;;;7.00;77.50;;;6.52;63.62;96647.34;4995527;28;20237;-18
2023/02/14 09:27:09;;;;;;;0.70;0.70;;;7.00;77.40;;;6.54;63.51;96642.84;4995481;28;20697;-18
2023/02/14 09:29:36;;;;;;;0.80;0.80;;;7.10;77.50;;;6.60;63.86;96646.72;4994501;28;20290;-18
2023/02/14 09:32:04;;;;;;;0.60;0.60;;;7.10;77.40;;;6.60;62.96;96640.69;4994521;28;20594;-18
2023/02/14 09:34:33;;;;;;;0.60;0.60;;;7.10;77.10;;;6.58;62.86;96646.03;4995307;28;20259;-18
2023/02/14 09:39:46;;;;;;;0.65;0.65;;;7.10;76.90;;;6.61;63.04;96645.78;4995397;28;20206;-18
2023/02/14 09:42:36;;;;;;;0.80;0.80;;;7.10;77.00;;;6.68;63.00;96651.34;4995131;28;20195;-18
2023/02/14 09:45:11;;;;;;;0.70;0.70;;;7.20;77.00;;;6.68;62.99;96646.94;4994531;28;20186;-18
2023/02/14 09:47:43;;;;;;;0.70;0.70;;;7.20;76.80;;;6.69;62.35;96655.59;4994487;28;20189;-18
2023/02/14 09:50:33;;;;;;;0.50;0.50;;;7.30;76.60;;;6.69;61.79;96637.34;4995007;28;20202;-18
2023/02/14 09:53:29;;;;;;;0.60;0.60;;;7.30;76.40;;;6.63;62.33;96645.63;4995156;28;20248;-18
2023/02/14 09:56:30;;;;;;;0.75;0.75;;;7.20;76.40;;;6.61;62.38;96647.56;4995038;28;20547;-18
2023/02/14 09:59:58;;;;;;;0.60;0.60;;;7.20;76.40;;;6.66;62.84;96648.81;4994552;28;20213;-18
2023/02/14 10:03:06;;;;;;;0.60;0.60;;;7.30;76.50;;;6.74;62.76;96653.44;4994160;28;20201;-17
2023/02/14 10:05:45;;;;;;;0.70;0.70;;;7.30;76.50;;;6.75;62.50;96657.72;4993997;28;20697;-18
2023/02/14 10:08:43;;;;;;;0.60;0.60;;;7.40;76.30;;;6.79;62.47;96664.31;4977867;28;20214;-18
2023/02/14 10:11:14;;;;;;;0.70;0.70;;;7.40;76.30;;;6.88;62.56;96658.38;4993474;28;20509;-18
2023/02/14 10:13:56;;;;;;;0.70;0.70;;;7.40;76.30;;;6.94;62.16;96656.19;4995140;28;20602;-18
2023/02/14 10:16:31;;;;;;;0.70;0.70;;;7.50;76.40;;;7.05;62.27;96656.13;4994753;28;20182;-18
2023/02/14 10:19:21;;;;;;;0.70;0.70;;;7.50;76.40;;;7.08;61.50;96655.91;4993932;28;20189;-18
2023/02/14 10:21:59;;;;;;;0.60;0.60;;;7.60;76.00;;;7.19;62.13;96655.84;4994493;28;20203;-18
2023/02/14 10:24:30;;;;;;;0.70;0.70;;;7.60;76.10;;;7.32;61.68;96658.25;4993829;28;20522;-18
2023/02/14 10:27:10;;;;;;;0.70;0.70;;;7.70;76.20;;;7.37;62.03;96643.03;4993749;28;20189;-18
2023/02/14 10:29:37;;;;;;;0.80;0.80;;;7.80;76.20;;;7.39;60.89;96642.91;4994674;28;20327;-18
2023/02/14 10:32:13;;;;;;;0.70;0.70;;;7.90;75.80;;;7.49;61.47;96635.13;4993409;28;20194;-18
2023/02/14 10:34:47;;;;;;;0.70;0.70;;;7.90;75.80;;;7.57;61.47;96634.44;4994695;28;20675;-18
2023/02/14 10:37:18;;;;;;;0.70;0.70;;;8.00;75.80;;;7.63;61.53;96633.94;4993418;28;20527;-18
2023/02/14 10:40:31;;;;;;;0.65;0.65;;;8.00;75.90;;;7.70;61.70;96637.69;4994669;28;20187;-18
2023/02/14 10:43:37;;;;;;;0.70;0.70;;;8.10;75.90;;;7.81;61.84;96637.59;4993677;28;20186;-18
2023/02/14 10:46:22;;;;;;;0.60;0.60;;;8.20;75.90;;;7.90;61.75;96635.97;4994249;28;20221;-18
2023/02/14 10:49:01;;;;;;;0.70;0.70;;;8.30;75.80;;;7.93;61.79;96627.03;4994429;28;20214;-18
2023/02/14 10:51:45;;;;;;;0.70;0.70;;;8.40;75.80;;;7.98;60.93;96620.47;4993216;28;20269;-18
2023/02/14 10:54:24;;;;;;;0.70;0.70;;;8.50;75.50;;;7.95;60.42;96625.13;4993849;28;20273;-18
2023/02/14 10:57:00;;;;;;;0.60;0.60;;;8.50;74.80;;;7.93;59.99;96622.63;4993277;28;20273;-18
2023/02/14 10:59:39;;;;;;;0.55;0.55;;;8.50;74.80;;;7.97;60.30;96628.44;4994096;28;20202;-18
2023/02/14 11:02:14;;;;;;;0.60;0.60;;;8.50;74.80;;;7.97;60.46;96621.44;4993997;28;20193;-18
2023/02/14 11:04:42;;;;;;;0.65;0.65;;;8.60;74.90;;;8.01;60.16;96614.16;4993449;28;20185;-18
2023/02/14 11:07:18;;;;;;;0.60;0.60;;;8.60;74.90;;;8.02;60.07;96611.41;4993876;28;20244;-18
2023/02/14 11:09:46;;;;;;;0.70;0.70;;;8.60;74.90;;;8.06;59.32;96616.38;4993977;28;20263;-18
2023/02/14 11:12:32;;;;;;;0.70;0.70;;;8.60;74.90;;;8.13;59.77;96607.84;4992842;28;20198;-18
2023/02/14 11:15:14;;;;;;;0.70;0.70;;;8.60;74.90;;;8.09;59.44;96609.09;4994115;28;20183;-18